sensor_id;sensor_type;location;lat;lon;timestamp;P1;durP1;ratioP1;P2;durP2;ratioP2
4517;SDS011;2271;49.464;11.070;2022-10-16T00:01:36;1.30;;;1.20;;
4517;SDS011;2271;49.464;11.070;2022-10-16T00:04:03;1.58;;;1.23;;
4517;SDS011;2271;49.464;11.070;2022-10-16T00:06:29;1.50;;;1.20;;
4517;SDS011;2271;49.464;11.070;2022-10-16T00:08:56;3.70;;;1.70;;
4517;SDS011;2271;49.464;11.070;2022-10-16T00:11:23;9.57;;;1.60;;
4517;SDS011;2271;49.464;11.070;2022-10-16T00:13:52;5.38;;;1.60;;
4517;SDS011;2271;49.464;11.070;2022-10-16T00:16:21;2.72;;;1.65;;
4517;SDS011;2271;49.464;11.070;2022-10-16T00:18:47;1.60;;;1.50;;
4517;SDS011;2271;49.464;11.070;2022-10-16T00:21:14;1.80;;;1.40;;
4517;SDS011;2271;49.464;11.070;2022-10-16T00:23:42;1.50;;;1.33;;
4517;SDS011;2271;49.464;11.070;2022-10-16T00:26:09;1.15;;;1.00;;
4517;SDS011;2271;49.464;11.070;2022-10-16T00:28:37;1.50;;;1.40;;
4517;SDS011;2271;49.464;11.070;2022-10-16T00:31:03;3.83;;;1.58;;
4517;SDS011;2271;49.464;11.070;2022-10-16T00:33:34;5.45;;;1.50;;
4517;SDS011;2271;49.464;11.070;2022-10-16T00:36:01;4.75;;;1.25;;
4517;SDS011;2271;49.464;11.070;2022-10-16T00:38:28;1.80;;;1.20;;
4517;SDS011;2271;49.464;11.070;2022-10-16T00:40:54;5.53;;;1.58;;
4517;SDS011;2271;49.464;11.070;2022-10-16T00:46:00;1.58;;;1.48;;
4517;SDS011;2271;49.464;11.070;2022-10-16T00:48:28;3.10;;;1.70;;
4517;SDS011;2271;49.464;11.070;2022-10-16T00:50:54;1.48;;;1.27;;
4517;SDS011;2271;49.464;11.070;2022-10-16T00:53:21;2.50;;;1.73;;
4517;SDS011;2271;49.464;11.070;2022-10-16T00:55:48;2.92;;;1.48;;
4517;SDS011;2271;49.464;11.070;2022-10-16T00:58:13;4.72;;;1.38;;
4517;SDS011;2271;49.464;11.070;2022-10-16T01:00:39;4.90;;;1.58;;
4517;SDS011;2271;49.464;11.070;2022-10-16T01:03:21;2.55;;;1.45;;
4517;SDS011;2271;49.464;11.070;2022-10-16T01:06:09;6.65;;;1.75;;
4517;SDS011;2271;49.464;11.070;2022-10-16T01:08:48;4.70;;;1.33;;
4517;SDS011;2271;49.464;11.070;2022-10-16T01:11:38;2.20;;;1.63;;
4517;SDS011;2271;49.464;11.070;2022-10-16T01:14:47;4.38;;;1.48;;
4517;SDS011;2271;49.464;11.070;2022-10-16T01:17:20;2.45;;;1.50;;
4517;SDS011;2271;49.464;11.070;2022-10-16T01:19:56;4.13;;;1.42;;
4517;SDS011;2271;49.464;11.070;2022-10-16T01:22:28;2.40;;;1.45;;
4517;SDS011;2271;49.464;11.070;2022-10-16T01:25:04;1.83;;;1.27;;
4517;SDS011;2271;49.464;11.070;2022-10-16T01:27:34;1.52;;;1.20;;
4517;SDS011;2271;49.464;11.070;2022-10-16T01:30:13;5.93;;;1.50;;
4517;SDS011;2271;49.464;11.070;2022-10-16T01:32:53;4.43;;;1.70;;
4517;SDS011;2271;49.464;11.070;2022-10-16T01:38:04;1.63;;;1.52;;
4517;SDS011;2271;49.464;11.070;2022-10-16T01:40:35;2.28;;;1.55;;
4517;SDS011;2271;49.464;11.070;2022-10-16T01:43:04;3.22;;;1.73;;
4517;SDS011;2271;49.464;11.070;2022-10-16T01:45:37;1.52;;;1.40;;
4517;SDS011;2271;49.464;11.070;2022-10-16T01:48:03;3.88;;;1.30;;
4517;SDS011;2271;49.464;11.070;2022-10-16T01:50:33;3.17;;;1.55;;
4517;SDS011;2271;49.464;11.070;2022-10-16T01:53:02;4.80;;;1.50;;
4517;SDS011;2271;49.464;11.070;2022-10-16T01:55:34;2.60;;;1.45;;
4517;SDS011;2271;49.464;11.070;2022-10-16T01:58:03;1.55;;;1.25;;
4517;SDS011;2271;49.464;11.070;2022-10-16T02:00:32;1.27;;;1.17;;
4517;SDS011;2271;49.464;11.070;2022-10-16T02:02:58;1.45;;;1.35;;
4517;SDS011;2271;49.464;11.070;2022-10-16T02:05:31;2.10;;;1.95;;
4517;SDS011;2271;49.464;11.070;2022-10-16T02:08:03;2.22;;;1.30;;
4517;SDS011;2271;49.464;11.070;2022-10-16T02:10:29;3.72;;;1.52;;
4517;SDS011;2271;49.464;11.070;2022-10-16T02:13:09;1.42;;;1.02;;
4517;SDS011;2271;49.464;11.070;2022-10-16T02:15:41;1.52;;;1.33;;
4517;SDS011;2271;49.464;11.070;2022-10-16T02:18:07;5.30;;;1.48;;
4517;SDS011;2271;49.464;11.070;2022-10-16T02:20:44;2.03;;;1.35;;
4517;SDS011;2271;49.464;11.070;2022-10-16T02:25:54;1.67;;;1.30;;
4517;SDS011;2271;49.464;11.070;2022-10-16T02:28:30;2.75;;;1.42;;
4517;SDS011;2271;49.464;11.070;2022-10-16T02:31:08;2.58;;;1.30;;
4517;SDS011;2271;49.464;11.070;2022-10-16T02:33:38;1.55;;;1.42;;
4517;SDS011;2271;49.464;11.070;2022-10-16T02:36:05;3.03;;;1.55;;
4517;SDS011;2271;49.464;11.070;2022-10-16T02:38:32;1.95;;;1.10;;
4517;SDS011;2271;49.464;11.070;2022-10-16T02:40:58;5.88;;;1.35;;
4517;SDS011;2271;49.464;11.070;2022-10-16T02:43:24;3.20;;;1.35;;
4517;SDS011;2271;49.464;11.070;2022-10-16T02:45:51;1.40;;;1.30;;
4517;SDS011;2271;49.464;11.070;2022-10-16T02:48:16;1.73;;;1.42;;
4517;SDS011;2271;49.464;11.070;2022-10-16T02:50:42;1.75;;;1.27;;
4517;SDS011;2271;49.464;11.070;2022-10-16T02:53:07;1.50;;;1.40;;
4517;SDS011;2271;49.464;11.070;2022-10-16T02:55:33;2.80;;;0.90;;
4517;SDS011;2271;49.464;11.070;2022-10-16T02:57:59;2.03;;;1.30;;
4517;SDS011;2271;49.464;11.070;2022-10-16T03:00:24;1.17;;;0.98;;
4517;SDS011;2271;49.464;11.070;2022-10-16T03:02:50;5.60;;;1.20;;
4517;SDS011;2271;49.464;11.070;2022-10-16T03:05:16;4.78;;;1.45;;
4517;SDS011;2271;49.464;11.070;2022-10-16T03:07:41;5.80;;;1.30;;
4517;SDS011;2271;49.464;11.070;2022-10-16T03:10:07;1.77;;;1.10;;
4517;SDS011;2271;49.464;11.070;2022-10-16T03:12:33;3.33;;;1.55;;
4517;SDS011;2271;49.464;11.070;2022-10-16T03:14:59;4.10;;;1.58;;
4517;SDS011;2271;49.464;11.070;2022-10-16T03:17:24;1.05;;;1.00;;
4517;SDS011;2271;49.464;11.070;2022-10-16T03:19:50;3.17;;;1.65;;
4517;SDS011;2271;49.464;11.070;2022-10-16T03:22:16;4.00;;;1.50;;
4517;SDS011;2271;49.464;11.070;2022-10-16T03:24:42;2.75;;;1.63;;
4517;SDS011;2271;49.464;11.070;2022-10-16T03:27:07;1.38;;;1.27;;
4517;SDS011;2271;49.464;11.070;2022-10-16T03:29:33;1.95;;;1.40;;
4517;SDS011;2271;49.464;11.070;2022-10-16T03:31:59;5.80;;;1.50;;
4517;SDS011;2271;49.464;11.070;2022-10-16T03:34:25;1.45;;;1.35;;
4517;SDS011;2271;49.464;11.070;2022-10-16T03:36:51;2.92;;;1.00;;
4517;SDS011;2271;49.464;11.070;2022-10-16T03:39:16;1.30;;;1.20;;
4517;SDS011;2271;49.464;11.070;2022-10-16T03:41:42;1.95;;;1.33;;
4517;SDS011;2271;49.464;11.070;2022-10-16T03:44:08;2.10;;;1.10;;
4517;SDS011;2271;49.464;11.070;2022-10-16T03:46:33;4.65;;;1.27;;
4517;SDS011;2271;49.464;11.070;2022-10-16T03:48:59;2.60;;;1.80;;
4517;SDS011;2271;49.464;11.070;2022-10-16T03:51:24;4.80;;;1.50;;
4517;SDS011;2271;49.464;11.070;2022-10-16T03:53:50;1.60;;;1.30;;
4517;SDS011;2271;49.464;11.070;2022-10-16T03:56:16;3.70;;;1.20;;
4517;SDS011;2271;49.464;11.070;2022-10-16T03:58:41;1.15;;;1.00;;
4517;SDS011;2271;49.464;11.070;2022-10-16T04:01:07;3.30;;;1.02;;
4517;SDS011;2271;49.464;11.070;2022-10-16T04:03:33;3.00;;;1.55;;
4517;SDS011;2271;49.464;11.070;2022-10-16T04:05:58;1.20;;;1.10;;
4517;SDS011;2271;49.464;11.070;2022-10-16T04:08:24;2.25;;;1.00;;
4517;SDS011;2271;49.464;11.070;2022-10-16T04:10:49;1.75;;;1.58;;
4517;SDS011;2271;49.464;11.070;2022-10-16T04:13:15;2.45;;;1.35;;
4517;SDS011;2271;49.464;11.070;2022-10-16T04:15:41;1.20;;;1.10;;
4517;SDS011;2271;49.464;11.070;2022-10-16T04:18:07;1.77;;;1.10;;
4517;SDS011;2271;49.464;11.070;2022-10-16T04:20:33;1.48;;;1.27;;
4517;SDS011;2271;49.464;11.070;2022-10-16T04:22:59;9.73;;;1.25;;
4517;SDS011;2271;49.464;11.070;2022-10-16T04:25:25;3.20;;;1.33;;
4517;SDS011;2271;49.464;11.070;2022-10-16T04:27:52;1.27;;;1.15;;
4517;SDS011;2271;49.464;11.070;2022-10-16T04:30:18;2.35;;;1.42;;
4517;SDS011;2271;49.464;11.070;2022-10-16T04:32:47;1.15;;;0.85;;
4517;SDS011;2271;49.464;11.070;2022-10-16T04:35:14;3.97;;;1.25;;
4517;SDS011;2271;49.464;11.070;2022-10-16T04:37:39;5.63;;;1.48;;
4517;SDS011;2271;49.464;11.070;2022-10-16T04:40:05;1.05;;;1.00;;
4517;SDS011;2271;49.464;11.070;2022-10-16T04:42:31;1.70;;;1.02;;
4517;SDS011;2271;49.464;11.070;2022-10-16T04:44:57;1.90;;;1.30;;
4517;SDS011;2271;49.464;11.070;2022-10-16T04:47:22;1.20;;;1.10;;
4517;SDS011;2271;49.464;11.070;2022-10-16T04:49:48;1.67;;;1.30;;
4517;SDS011;2271;49.464;11.070;2022-10-16T04:52:13;1.52;;;1.40;;
4517;SDS011;2271;49.464;11.070;2022-10-16T04:54:39;1.50;;;1.40;;
4517;SDS011;2271;49.464;11.070;2022-10-16T04:57:05;2.03;;;1.50;;
4517;SDS011;2271;49.464;11.070;2022-10-16T04:59:31;1.20;;;1.10;;
4517;SDS011;2271;49.464;11.070;2022-10-16T05:01:56;1.70;;;1.25;;
4517;SDS011;2271;49.464;11.070;2022-10-16T05:04:22;1.73;;;1.08;;
4517;SDS011;2271;49.464;11.070;2022-10-16T05:06:48;1.30;;;1.20;;
4517;SDS011;2271;49.464;11.070;2022-10-16T05:09:14;4.75;;;1.20;;
4517;SDS011;2271;49.464;11.070;2022-10-16T05:11:39;1.42;;;1.30;;
4517;SDS011;2271;49.464;11.070;2022-10-16T05:14:05;1.40;;;0.98;;
4517;SDS011;2271;49.464;11.070;2022-10-16T05:16:31;3.10;;;1.20;;
4517;SDS011;2271;49.464;11.070;2022-10-16T05:18:56;1.63;;;1.15;;
4517;SDS011;2271;49.464;11.070;2022-10-16T05:21:22;1.52;;;1.20;;
4517;SDS011;2271;49.464;11.070;2022-10-16T05:23:48;1.23;;;1.10;;
4517;SDS011;2271;49.464;11.070;2022-10-16T05:26:13;1.33;;;1.23;;
4517;SDS011;2271;49.464;11.070;2022-10-16T05:28:39;2.25;;;1.27;;
4517;SDS011;2271;49.464;11.070;2022-10-16T05:31:05;2.17;;;1.30;;
4517;SDS011;2271;49.464;11.070;2022-10-16T05:33:32;1.17;;;1.08;;
4517;SDS011;2271;49.464;11.070;2022-10-16T05:36:00;4.47;;;1.20;;
4517;SDS011;2271;49.464;11.070;2022-10-16T05:38:32;1.50;;;1.35;;
4517;SDS011;2271;49.464;11.070;2022-10-16T05:40:57;1.77;;;1.25;;
4517;SDS011;2271;49.464;11.070;2022-10-16T05:43:23;1.27;;;1.20;;
4517;SDS011;2271;49.464;11.070;2022-10-16T05:45:55;1.77;;;1.25;;
4517;SDS011;2271;49.464;11.070;2022-10-16T05:48:25;2.33;;;1.38;;
4517;SDS011;2271;49.464;11.070;2022-10-16T05:51:00;2.80;;;1.60;;
4517;SDS011;2271;49.464;11.070;2022-10-16T05:53:29;1.58;;;1.23;;
4517;SDS011;2271;49.464;11.070;2022-10-16T05:55:57;3.78;;;1.65;;
4517;SDS011;2271;49.464;11.070;2022-10-16T05:58:23;5.18;;;1.33;;
4517;SDS011;2271;49.464;11.070;2022-10-16T06:00:53;1.40;;;0.95;;
4517;SDS011;2271;49.464;11.070;2022-10-16T06:03:20;2.00;;;1.42;;
4517;SDS011;2271;49.464;11.070;2022-10-16T06:05:46;3.25;;;1.02;;
4517;SDS011;2271;49.464;11.070;2022-10-16T06:08:11;2.28;;;1.45;;
4517;SDS011;2271;49.464;11.070;2022-10-16T06:10:37;2.67;;;1.30;;
4517;SDS011;2271;49.464;11.070;2022-10-16T06:13:03;2.33;;;1.20;;
4517;SDS011;2271;49.464;11.070;2022-10-16T06:15:28;2.17;;;1.42;;
4517;SDS011;2271;49.464;11.070;2022-10-16T06:17:54;2.60;;;1.30;;
4517;SDS011;2271;49.464;11.070;2022-10-16T06:20:20;3.47;;;1.27;;
4517;SDS011;2271;49.464;11.070;2022-10-16T06:22:45;2.95;;;1.50;;
4517;SDS011;2271;49.464;11.070;2022-10-16T06:25:11;4.15;;;1.80;;
4517;SDS011;2271;49.464;11.070;2022-10-16T06:27:39;1.85;;;0.95;;
4517;SDS011;2271;49.464;11.070;2022-10-16T06:30:05;1.15;;;1.13;;
4517;SDS011;2271;49.464;11.070;2022-10-16T06:32:32;1.35;;;1.10;;
4517;SDS011;2271;49.464;11.070;2022-10-16T06:34:57;5.60;;;1.58;;
4517;SDS011;2271;49.464;11.070;2022-10-16T06:37:23;2.20;;;1.05;;
4517;SDS011;2271;49.464;11.070;2022-10-16T06:39:49;3.00;;;1.63;;
4517;SDS011;2271;49.464;11.070;2022-10-16T06:42:17;1.63;;;1.20;;
4517;SDS011;2271;49.464;11.070;2022-10-16T06:44:43;2.15;;;1.33;;
4517;SDS011;2271;49.464;11.070;2022-10-16T06:47:09;1.92;;;1.67;;
4517;SDS011;2271;49.464;11.070;2022-10-16T06:49:34;6.07;;;1.70;;
4517;SDS011;2271;49.464;11.070;2022-10-16T06:52:00;1.88;;;1.40;;
4517;SDS011;2271;49.464;11.070;2022-10-16T06:54:26;2.00;;;1.60;;
4517;SDS011;2271;49.464;11.070;2022-10-16T06:56:52;4.53;;;1.50;;
4517;SDS011;2271;49.464;11.070;2022-10-16T06:59:19;2.38;;;1.30;;
4517;SDS011;2271;49.464;11.070;2022-10-16T07:01:45;2.83;;;1.63;;
4517;SDS011;2271;49.464;11.070;2022-10-16T07:04:11;2.72;;;1.38;;
4517;SDS011;2271;49.464;11.070;2022-10-16T07:06:37;2.40;;;1.17;;
4517;SDS011;2271;49.464;11.070;2022-10-16T07:09:04;2.80;;;1.27;;
4517;SDS011;2271;49.464;11.070;2022-10-16T07:11:31;5.68;;;1.52;;
4517;SDS011;2271;49.464;11.070;2022-10-16T07:13:57;1.30;;;1.20;;
4517;SDS011;2271;49.464;11.070;2022-10-16T07:16:27;1.13;;;1.02;;
4517;SDS011;2271;49.464;11.070;2022-10-16T07:18:54;1.75;;;1.65;;
4517;SDS011;2271;49.464;11.070;2022-10-16T07:21:24;1.70;;;1.60;;
4517;SDS011;2271;49.464;11.070;2022-10-16T07:23:51;2.10;;;1.60;;
4517;SDS011;2271;49.464;11.070;2022-10-16T07:26:17;2.53;;;1.58;;
4517;SDS011;2271;49.464;11.070;2022-10-16T07:28:43;2.90;;;1.48;;
4517;SDS011;2271;49.464;11.070;2022-10-16T07:31:10;3.45;;;1.50;;
4517;SDS011;2271;49.464;11.070;2022-10-16T07:33:38;4.80;;;1.60;;
4517;SDS011;2271;49.464;11.070;2022-10-16T07:36:05;4.80;;;1.30;;
4517;SDS011;2271;49.464;11.070;2022-10-16T07:38:31;3.38;;;2.10;;
4517;SDS011;2271;49.464;11.070;2022-10-16T07:40:59;1.70;;;1.40;;
4517;SDS011;2271;49.464;11.070;2022-10-16T07:43:27;2.47;;;1.45;;
4517;SDS011;2271;49.464;11.070;2022-10-16T07:45:53;2.38;;;1.42;;
4517;SDS011;2271;49.464;11.070;2022-10-16T07:48:19;2.10;;;1.88;;
4517;SDS011;2271;49.464;11.070;2022-10-16T07:50:45;5.72;;;1.70;;
4517;SDS011;2271;49.464;11.070;2022-10-16T07:53:11;4.63;;;1.52;;
4517;SDS011;2271;49.464;11.070;2022-10-16T07:55:37;3.17;;;1.67;;
4517;SDS011;2271;49.464;11.070;2022-10-16T07:58:03;1.63;;;1.30;;
4517;SDS011;2271;49.464;11.070;2022-10-16T08:00:29;2.70;;;1.58;;
4517;SDS011;2271;49.464;11.070;2022-10-16T08:02:56;3.20;;;1.60;;
4517;SDS011;2271;49.464;11.070;2022-10-16T08:05:25;4.38;;;1.40;;
4517;SDS011;2271;49.464;11.070;2022-10-16T08:07:55;1.38;;;1.20;;
4517;SDS011;2271;49.464;11.070;2022-10-16T08:10:22;3.47;;;1.50;;
4517;SDS011;2271;49.464;11.070;2022-10-16T08:12:49;2.15;;;1.85;;
4517;SDS011;2271;49.464;11.070;2022-10-16T08:15:15;2.20;;;1.13;;
4517;SDS011;2271;49.464;11.070;2022-10-16T08:17:41;1.65;;;1.55;;
4517;SDS011;2271;49.464;11.070;2022-10-16T08:20:07;1.85;;;1.65;;
4517;SDS011;2271;49.464;11.070;2022-10-16T08:22:33;1.60;;;1.38;;
4517;SDS011;2271;49.464;11.070;2022-10-16T08:24:59;1.95;;;1.38;;
4517;SDS011;2271;49.464;11.070;2022-10-16T08:27:24;1.95;;;1.40;;
4517;SDS011;2271;49.464;11.070;2022-10-16T08:29:50;1.92;;;1.70;;
4517;SDS011;2271;49.464;11.070;2022-10-16T08:32:16;3.05;;;1.40;;
4517;SDS011;2271;49.464;11.070;2022-10-16T08:34:41;1.30;;;1.20;;
4517;SDS011;2271;49.464;11.070;2022-10-16T08:37:07;3.17;;;1.45;;
4517;SDS011;2271;49.464;11.070;2022-10-16T08:39:36;2.42;;;1.70;;
4517;SDS011;2271;49.464;11.070;2022-10-16T08:42:07;3.65;;;1.42;;
4517;SDS011;2271;49.464;11.070;2022-10-16T08:47:25;5.95;;;1.55;;
4517;SDS011;2271;49.464;11.070;2022-10-16T08:50:00;1.77;;;1.52;;
4517;SDS011;2271;49.464;11.070;2022-10-16T08:52:35;1.77;;;1.45;;
4517;SDS011;2271;49.464;11.070;2022-10-16T08:55:05;2.97;;;1.85;;
4517;SDS011;2271;49.464;11.070;2022-10-16T08:57:31;3.13;;;1.83;;
4517;SDS011;2271;49.464;11.070;2022-10-16T09:00:05;6.50;;;1.63;;
4517;SDS011;2271;49.464;11.070;2022-10-16T09:02:45;2.53;;;1.65;;
4517;SDS011;2271;49.464;11.070;2022-10-16T09:10:58;2.55;;;1.20;;
4517;SDS011;2271;49.464;11.070;2022-10-16T09:13:34;3.67;;;1.38;;
4517;SDS011;2271;49.464;11.070;2022-10-16T09:18:40;1.60;;;1.30;;
4517;SDS011;2271;49.464;11.070;2022-10-16T09:21:30;3.15;;;1.50;;
4517;SDS011;2271;49.464;11.070;2022-10-16T09:24:06;1.63;;;1.50;;
4517;SDS011;2271;49.464;11.070;2022-10-16T09:26:41;1.45;;;1.35;;
4517;SDS011;2271;49.464;11.070;2022-10-16T09:29:14;2.17;;;1.45;;
4517;SDS011;2271;49.464;11.070;2022-10-16T09:31:42;3.92;;;1.65;;
4517;SDS011;2271;49.464;11.070;2022-10-16T09:34:29;1.92;;;1.27;;
4517;SDS011;2271;49.464;11.070;2022-10-16T09:36:58;2.53;;;1.40;;
4517;SDS011;2271;49.464;11.070;2022-10-16T09:39:27;1.77;;;1.20;;
4517;SDS011;2271;49.464;11.070;2022-10-16T09:41:53;1.45;;;1.27;;
4517;SDS011;2271;49.464;11.070;2022-10-16T09:44:22;2.28;;;1.50;;
4517;SDS011;2271;49.464;11.070;2022-10-16T09:47:00;1.70;;;1.17;;
4517;SDS011;2271;49.464;11.070;2022-10-16T09:49:27;1.77;;;1.58;;
4517;SDS011;2271;49.464;11.070;2022-10-16T09:52:06;1.25;;;1.15;;
4517;SDS011;2271;49.464;11.070;2022-10-16T09:54:37;3.40;;;1.20;;
4517;SDS011;2271;49.464;11.070;2022-10-16T09:57:06;2.63;;;1.40;;
4517;SDS011;2271;49.464;11.070;2022-10-16T09:59:32;2.55;;;1.52;;
4517;SDS011;2271;49.464;11.070;2022-10-16T10:02:01;1.60;;;1.25;;
4517;SDS011;2271;49.464;11.070;2022-10-16T10:04:37;3.67;;;2.10;;
4517;SDS011;2271;49.464;11.070;2022-10-16T10:07:05;2.17;;;1.80;;
4517;SDS011;2271;49.464;11.070;2022-10-16T10:09:42;1.35;;;1.23;;
4517;SDS011;2271;49.464;11.070;2022-10-16T10:12:23;2.40;;;1.80;;
4517;SDS011;2271;49.464;11.070;2022-10-16T10:14:56;4.20;;;1.55;;
4517;SDS011;2271;49.464;11.070;2022-10-16T10:17:29;2.63;;;1.77;;
4517;SDS011;2271;49.464;11.070;2022-10-16T10:22:43;3.78;;;2.28;;
4517;SDS011;2271;49.464;11.070;2022-10-16T10:30:54;5.13;;;1.88;;
4517;SDS011;2271;49.464;11.070;2022-10-16T10:58:33;4.65;;;2.30;;
4517;SDS011;2271;49.464;11.070;2022-10-16T11:04:07;1.63;;;1.50;;
4517;SDS011;2271;49.464;11.070;2022-10-16T11:09:36;10.80;;;4.97;;
4517;SDS011;2271;49.464;11.070;2022-10-16T11:14:51;6.63;;;2.42;;
4517;SDS011;2271;49.464;11.070;2022-10-16T11:21:02;2.88;;;1.85;;
4517;SDS011;2271;49.464;11.070;2022-10-16T11:25:48;4.63;;;2.13;;
4517;SDS011;2271;49.464;11.070;2022-10-16T11:34:47;4.65;;;2.70;;
4517;SDS011;2271;49.464;11.070;2022-10-16T11:37:02;6.25;;;2.30;;
4517;SDS011;2271;49.464;11.070;2022-10-16T11:39:35;9.80;;;2.25;;
4517;SDS011;2271;49.464;11.070;2022-10-16T11:44:52;4.18;;;1.65;;
4517;SDS011;2271;49.464;11.070;2022-10-16T11:47:35;4.88;;;1.55;;
4517;SDS011;2271;49.464;11.070;2022-10-16T11:52:45;3.42;;;1.45;;
4517;SDS011;2271;49.464;11.070;2022-10-16T11:55:36;8.70;;;2.17;;
4517;SDS011;2271;49.464;11.070;2022-10-16T11:58:06;7.53;;;2.08;;
4517;SDS011;2271;49.464;11.070;2022-10-16T12:00:52;8.77;;;2.30;;
4517;SDS011;2271;49.464;11.070;2022-10-16T12:08:49;12.88;;;2.50;;
4517;SDS011;2271;49.464;11.070;2022-10-16T12:14:04;8.45;;;1.92;;
4517;SDS011;2271;49.464;11.070;2022-10-16T12:16:30;2.55;;;1.48;;
4517;SDS011;2271;49.464;11.070;2022-10-16T12:19:13;2.53;;;1.75;;
4517;SDS011;2271;49.464;11.070;2022-10-16T12:21:40;5.25;;;1.40;;
4517;SDS011;2271;49.464;11.070;2022-10-16T12:24:18;1.90;;;1.30;;
4517;SDS011;2271;49.464;11.070;2022-10-16T12:27:06;6.53;;;1.55;;
4517;SDS011;2271;49.464;11.070;2022-10-16T12:29:57;2.60;;;1.25;;
4517;SDS011;2271;49.464;11.070;2022-10-16T12:32:32;1.90;;;1.38;;
4517;SDS011;2271;49.464;11.070;2022-10-16T12:35:02;4.95;;;1.55;;
4517;SDS011;2271;49.464;11.070;2022-10-16T12:37:35;2.88;;;2.00;;
4517;SDS011;2271;49.464;11.070;2022-10-16T12:40:12;2.78;;;1.17;;
4517;SDS011;2271;49.464;11.070;2022-10-16T12:42:41;1.55;;;1.10;;
4517;SDS011;2271;49.464;11.070;2022-10-16T12:47:54;2.45;;;1.35;;
4517;SDS011;2271;49.464;11.070;2022-10-16T12:52:59;2.13;;;0.95;;
4517;SDS011;2271;49.464;11.070;2022-10-16T12:55:26;1.65;;;1.25;;
4517;SDS011;2271;49.464;11.070;2022-10-16T12:57:59;2.95;;;1.30;;
4517;SDS011;2271;49.464;11.070;2022-10-16T13:03:24;1.77;;;1.52;;
4517;SDS011;2271;49.464;11.070;2022-10-16T13:06:13;2.20;;;1.35;;
4517;SDS011;2271;49.464;11.070;2022-10-16T13:09:05;4.90;;;1.73;;
4517;SDS011;2271;49.464;11.070;2022-10-16T13:14:33;1.45;;;1.30;;
4517;SDS011;2271;49.464;11.070;2022-10-16T13:22:59;1.67;;;1.30;;
4517;SDS011;2271;49.464;11.070;2022-10-16T13:28:15;2.42;;;1.60;;
4517;SDS011;2271;49.464;11.070;2022-10-16T13:30:43;1.70;;;1.55;;
4517;SDS011;2271;49.464;11.070;2022-10-16T13:33:17;5.70;;;1.75;;
4517;SDS011;2271;49.464;11.070;2022-10-16T13:35:55;1.42;;;1.33;;
4517;SDS011;2271;49.464;11.070;2022-10-16T13:38:22;2.53;;;1.98;;
4517;SDS011;2271;49.464;11.070;2022-10-16T13:40:50;1.95;;;1.45;;
4517;SDS011;2271;49.464;11.070;2022-10-16T13:43:22;1.52;;;1.23;;
4517;SDS011;2271;49.464;11.070;2022-10-16T13:46:02;1.80;;;1.17;;
4517;SDS011;2271;49.464;11.070;2022-10-16T13:48:38;6.00;;;2.28;;
4517;SDS011;2271;49.464;11.070;2022-10-16T13:53:33;2.05;;;1.02;;
4517;SDS011;2271;49.464;11.070;2022-10-16T13:56:01;2.40;;;1.10;;
4517;SDS011;2271;49.464;11.070;2022-10-16T13:58:31;1.27;;;0.98;;
4517;SDS011;2271;49.464;11.070;2022-10-16T14:01:02;3.10;;;0.95;;
4517;SDS011;2271;49.464;11.070;2022-10-16T14:03:30;5.25;;;1.42;;
4517;SDS011;2271;49.464;11.070;2022-10-16T14:06:02;1.85;;;1.30;;
4517;SDS011;2271;49.464;11.070;2022-10-16T14:08:30;10.82;;;4.43;;
4517;SDS011;2271;49.464;11.070;2022-10-16T14:10:58;9.18;;;3.42;;
4517;SDS011;2271;49.464;11.070;2022-10-16T14:13:29;5.03;;;2.83;;
4517;SDS011;2271;49.464;11.070;2022-10-16T14:15:56;6.90;;;3.53;;
4517;SDS011;2271;49.464;11.070;2022-10-16T14:18:24;3.13;;;1.70;;
4517;SDS011;2271;49.464;11.070;2022-10-16T14:20:52;1.08;;;0.90;;
4517;SDS011;2271;49.464;11.070;2022-10-16T14:23:19;1.60;;;1.23;;
4517;SDS011;2271;49.464;11.070;2022-10-16T14:25:46;3.40;;;1.55;;
4517;SDS011;2271;49.464;11.070;2022-10-16T14:28:18;2.35;;;1.10;;
4517;SDS011;2271;49.464;11.070;2022-10-16T14:30:49;6.10;;;1.75;;
4517;SDS011;2271;49.464;11.070;2022-10-16T14:33:21;4.22;;;1.45;;
4517;SDS011;2271;49.464;11.070;2022-10-16T14:38:29;3.85;;;2.53;;
4517;SDS011;2271;49.464;11.070;2022-10-16T14:40:57;5.18;;;1.50;;
4517;SDS011;2271;49.464;11.070;2022-10-16T14:46:01;2.55;;;1.13;;
4517;SDS011;2271;49.464;11.070;2022-10-16T14:48:40;1.50;;;0.98;;
4517;SDS011;2271;49.464;11.070;2022-10-16T14:51:15;1.70;;;1.00;;
4517;SDS011;2271;49.464;11.070;2022-10-16T14:53:42;2.60;;;1.17;;
4517;SDS011;2271;49.464;11.070;2022-10-16T14:56:30;2.03;;;1.00;;
4517;SDS011;2271;49.464;11.070;2022-10-16T14:58:55;1.27;;;0.80;;
4517;SDS011;2271;49.464;11.070;2022-10-16T15:01:21;1.88;;;1.17;;
4517;SDS011;2271;49.464;11.070;2022-10-16T15:03:47;0.82;;;0.82;;
4517;SDS011;2271;49.464;11.070;2022-10-16T15:06:14;1.55;;;0.90;;
4517;SDS011;2271;49.464;11.070;2022-10-16T15:08:40;1.92;;;1.10;;
4517;SDS011;2271;49.464;11.070;2022-10-16T15:11:14;1.23;;;1.13;;
4517;SDS011;2271;49.464;11.070;2022-10-16T15:13:41;1.15;;;1.05;;
4517;SDS011;2271;49.464;11.070;2022-10-16T15:16:11;5.05;;;2.13;;
4517;SDS011;2271;49.464;11.070;2022-10-16T15:18:38;8.27;;;3.83;;
4517;SDS011;2271;49.464;11.070;2022-10-16T15:21:04;4.10;;;2.47;;
4517;SDS011;2271;49.464;11.070;2022-10-16T15:23:29;6.70;;;2.53;;
4517;SDS011;2271;49.464;11.070;2022-10-16T15:25:55;8.63;;;3.47;;
4517;SDS011;2271;49.464;11.070;2022-10-16T15:28:22;3.47;;;2.25;;
4517;SDS011;2271;49.464;11.070;2022-10-16T15:30:49;4.70;;;1.98;;
4517;SDS011;2271;49.464;11.070;2022-10-16T15:33:20;3.55;;;2.22;;
4517;SDS011;2271;49.464;11.070;2022-10-16T15:35:51;7.25;;;3.22;;
4517;SDS011;2271;49.464;11.070;2022-10-16T15:38:18;5.15;;;2.65;;
4517;SDS011;2271;49.464;11.070;2022-10-16T15:40:45;5.50;;;2.25;;
4517;SDS011;2271;49.464;11.070;2022-10-16T15:43:12;2.63;;;2.00;;
4517;SDS011;2271;49.464;11.070;2022-10-16T15:45:37;9.57;;;3.40;;
4517;SDS011;2271;49.464;11.070;2022-10-16T15:48:03;8.88;;;3.97;;
4517;SDS011;2271;49.464;11.070;2022-10-16T15:50:29;15.20;;;6.03;;
4517;SDS011;2271;49.464;11.070;2022-10-16T15:52:55;17.25;;;5.97;;
4517;SDS011;2271;49.464;11.070;2022-10-16T15:55:21;19.50;;;7.97;;
4517;SDS011;2271;49.464;11.070;2022-10-16T15:57:47;33.42;;;12.23;;
4517;SDS011;2271;49.464;11.070;2022-10-16T16:00:14;47.67;;;18.70;;
4517;SDS011;2271;49.464;11.070;2022-10-16T16:02:42;35.75;;;14.93;;
4517;SDS011;2271;49.464;11.070;2022-10-16T16:05:09;27.20;;;12.60;;
4517;SDS011;2271;49.464;11.070;2022-10-16T16:07:36;16.75;;;7.80;;
4517;SDS011;2271;49.464;11.070;2022-10-16T16:10:03;13.82;;;5.80;;
4517;SDS011;2271;49.464;11.070;2022-10-16T16:12:31;16.40;;;6.75;;
4517;SDS011;2271;49.464;11.070;2022-10-16T16:14:57;15.35;;;6.65;;
4517;SDS011;2271;49.464;11.070;2022-10-16T16:17:22;9.93;;;4.90;;
4517;SDS011;2271;49.464;11.070;2022-10-16T16:19:49;10.52;;;4.65;;
4517;SDS011;2271;49.464;11.070;2022-10-16T16:22:15;8.95;;;4.25;;
4517;SDS011;2271;49.464;11.070;2022-10-16T16:24:40;6.72;;;4.43;;
4517;SDS011;2271;49.464;11.070;2022-10-16T16:27:06;9.85;;;3.45;;
4517;SDS011;2271;49.464;11.070;2022-10-16T16:29:32;12.13;;;5.35;;
4517;SDS011;2271;49.464;11.070;2022-10-16T16:31:58;9.07;;;5.00;;
4517;SDS011;2271;49.464;11.070;2022-10-16T16:34:25;26.80;;;12.35;;
4517;SDS011;2271;49.464;11.070;2022-10-16T16:36:52;30.08;;;12.13;;
4517;SDS011;2271;49.464;11.070;2022-10-16T16:39:18;11.52;;;5.38;;
4517;SDS011;2271;49.464;11.070;2022-10-16T16:41:44;15.02;;;7.30;;
4517;SDS011;2271;49.464;11.070;2022-10-16T16:44:13;16.48;;;9.45;;
4517;SDS011;2271;49.464;11.070;2022-10-16T16:46:40;11.00;;;7.25;;
4517;SDS011;2271;49.464;11.070;2022-10-16T16:49:08;9.27;;;5.53;;
4517;SDS011;2271;49.464;11.070;2022-10-16T16:51:35;7.38;;;4.10;;
4517;SDS011;2271;49.464;11.070;2022-10-16T16:54:01;8.15;;;3.72;;
4517;SDS011;2271;49.464;11.070;2022-10-16T16:56:27;8.48;;;3.97;;
4517;SDS011;2271;49.464;11.070;2022-10-16T16:58:53;9.43;;;4.05;;
4517;SDS011;2271;49.464;11.070;2022-10-16T17:01:21;4.32;;;3.17;;
4517;SDS011;2271;49.464;11.070;2022-10-16T17:03:49;3.38;;;3.00;;
4517;SDS011;2271;49.464;11.070;2022-10-16T17:06:16;4.60;;;3.35;;